Time;durP1;ratioP1;P1;durP2;ratioP2;P2;SDS_P1;SDS_P2;PMS_P1;PMS_P2;Temp;Humidity;BMP_temperature;BMP_pressure;BME280_temperature;BME280_humidity;BME280_pressure;Samples;Min_cycle;Max_cycle;Signal;HPM_P1;HPM_P2
2024/02/13 00:00:37;;;;;;;9.65;4.43;;;4.90;76.70;;;;;;4975430;28;20023;-75
2024/02/13 00:03:05;;;;;;;7.43;4.32;;;4.90;76.80;;;;;;4959001;28;20031;-75
2024/02/13 00:05:33;;;;;;;6.70;3.78;;;4.80;76.70;;;;;;4975052;28;20026;-75
2024/02/13 00:08:00;;;;;;;8.57;3.97;;;4.80;76.70;;;;;;4976362;28;20377;-75
2024/02/13 00:10:28;;;;;;;8.25;4.40;;;4.80;76.90;;;;;;4976667;28;20035;-75
2024/02/13 00:12:53;;;;;;;9.68;4.60;;;4.80;76.90;;;;;;4959232;28;20027;-76
2024/02/13 00:15:20;;;;;;;9.70;4.07;;;4.80;76.70;;;;;;4976404;28;20050;-75
2024/02/13 00:17:46;;;;;;;6.53;3.22;;;4.90;76.80;;;;;;4959091;28;20129;-74
2024/02/13 00:20:14;;;;;;;7.68;3.78;;;4.80;77.40;;;;;;4976097;28;20106;-74
2024/02/13 00:22:40;;;;;;;6.95;3.05;;;4.90;76.60;;;;;;4958855;28;20019;-74
2024/02/13 00:25:08;;;;;;;6.32;3.13;;;4.90;76.50;;;;;;4958771;28;20034;-74
2024/02/13 00:27:35;;;;;;;5.20;2.38;;;4.90;76.30;;;;;;4958754;28;20122;-74
2024/02/13 00:30:04;;;;;;;10.20;3.22;;;4.80;76.10;;;;;;4958714;28;20073;-74
2024/02/13 00:32:31;;;;;;;7.97;3.00;;;4.80;76.20;;;;;;4958836;28;20090;-74
2024/02/13 00:34:57;;;;;;;6.18;2.78;;;4.70;76.30;;;;;;4976024;28;20029;-75
2024/02/13 00:37:25;;;;;;;11.13;3.67;;;4.70;76.60;;;;;;4975738;28;20443;-75
2024/02/13 00:39:51;;;;;;;6.70;2.90;;;4.70;76.80;;;;;;4975903;28;20438;-74
2024/02/13 00:42:16;;;;;;;8.70;3.03;;;4.70;76.80;;;;;;4975888;28;20027;-74
2024/02/13 00:44:43;;;;;;;6.38;2.88;;;4.70;76.90;;;;;;4974619;28;20030;-74
2024/02/13 00:47:08;;;;;;;7.35;3.05;;;4.70;76.90;;;;;;4975766;28;20031;-74
2024/02/13 00:49:34;;;;;;;8.40;3.58;;;4.70;77.00;;;;;;4958594;28;20039;-74
2024/02/13 00:52:01;;;;;;;7.65;3.40;;;4.80;77.00;;;;;;4975759;28;20518;-74
2024/02/13 00:54:26;;;;;;;6.82;3.05;;;4.80;76.90;;;;;;4975660;28;20019;-74
2024/02/13 00:56:52;;;;;;;7.88;3.70;;;4.70;77.20;;;;;;4975866;28;20031;-74
2024/02/13 00:59:21;;;;;;;7.57;3.22;;;4.70;77.30;;;;;;4974661;28;20030;-74
2024/02/13 01:01:47;;;;;;;9.30;3.20;;;4.70;77.10;;;;;;4975514;28;20387;-75
2024/02/13 01:04:12;;;;;;;8.15;2.92;;;4.60;77.00;;;;;;4974163;28;20023;-75
2024/02/13 01:06:38;;;;;;;6.57;2.67;;;4.60;77.10;;;;;;4975090;28;20507;-74
2024/02/13 01:09:05;;;;;;;6.20;2.47;;;4.60;77.50;;;;;;4957829;28;20019;-74
2024/02/13 01:11:35;;;;;;;5.65;2.65;;;4.60;77.70;;;;;;4957796;28;20038;-74
2024/02/13 01:14:02;;;;;;;7.45;2.30;;;4.60;77.80;;;;;;4957959;28;20027;-75
2024/02/13 01:16:28;;;;;;;6.35;2.20;;;4.60;77.80;;;;;;4957762;28;20595;-74
2024/02/13 01:18:54;;;;;;;7.28;2.47;;;4.70;78.10;;;;;;4957768;28;20038;-74
2024/02/13 01:21:22;;;;;;;6.30;3.10;;;4.70;78.10;;;;;;4974932;28;20034;-75
2024/02/13 01:23:48;;;;;;;5.50;2.30;;;4.70;78.30;;;;;;4975027;28;20480;-74
2024/02/13 01:26:14;;;;;;;5.68;2.60;;;4.80;78.20;;;;;;4957581;28;20062;-75
2024/02/13 01:28:40;;;;;;;7.13;2.45;;;4.80;77.90;;;;;;4973513;28;20030;-74
2024/02/13 01:31:05;;;;;;;6.82;2.28;;;4.80;77.60;;;;;;4974933;28;20035;-74
2024/02/13 01:33:33;;;;;;;7.57;2.95;;;4.80;77.80;;;;;;4974923;28;20059;-74
2024/02/13 01:35:59;;;;;;;4.82;2.25;;;4.80;77.90;;;;;;4957745;28;20031;-74
2024/02/13 01:38:27;;;;;;;7.70;2.75;;;4.80;78.00;;;;;;4973530;28;20025;-75
2024/02/13 01:40:53;;;;;;;4.57;2.40;;;4.80;78.20;;;;;;4974697;28;20050;-74
2024/02/13 01:43:19;;;;;;;5.40;2.53;;;4.80;78.20;;;;;;4957623;28;20113;-74
2024/02/13 01:45:48;;;;;;;6.10;2.40;;;4.80;78.20;;;;;;4973365;28;20174;-74
2024/02/13 01:48:17;;;;;;;6.22;2.55;;;4.90;78.20;;;;;;4957690;28;20035;-74
2024/02/13 01:50:43;;;;;;;5.03;2.70;;;4.90;78.20;;;;;;4974056;28;20031;-74
2024/02/13 01:53:09;;;;;;;9.30;3.28;;;4.90;78.00;;;;;;4957146;28;20153;-75
2024/02/13 01:55:35;;;;;;;7.72;2.58;;;5.00;77.90;;;;;;4974108;28;20125;-74
2024/02/13 01:58:02;;;;;;;8.25;2.30;;;5.00;77.90;;;;;;4974507;28;20471;-74
2024/02/13 02:00:33;;;;;;;9.88;2.70;;;5.00;77.80;;;;;;4957109;28;20038;-75
2024/02/13 02:03:00;;;;;;;5.20;2.15;;;5.00;77.70;;;;;;4973427;28;20023;-75
2024/02/13 02:05:26;;;;;;;5.60;2.08;;;5.10;77.70;;;;;;4956721;28;20476;-74
2024/02/13 02:07:53;;;;;;;4.50;2.13;;;5.00;77.50;;;;;;4956789;28;20033;-74
2024/02/13 02:10:19;;;;;;;8.13;2.58;;;5.00;77.40;;;;;;4974485;28;20031;-74
2024/02/13 02:12:49;;;;;;;6.32;1.88;;;5.00;77.50;;;;;;4973010;28;20074;-74
2024/02/13 02:15:16;;;;;;;6.25;1.88;;;5.00;77.70;;;;;;4974192;28;20064;-75
2024/02/13 02:17:52;;;;;;;4.88;1.98;;;5.00;77.90;;;;;;4974062;28;20035;-75
2024/02/13 02:20:19;;;;;;;;;;;5.00;77.90;;;;;;4974505;28;20537;-74
2024/02/13 02:22:47;;;;;;;5.40;2.00;;;5.00;78.00;;;;;;4974142;28;19969;-74
2024/02/13 02:25:24;;;;;;;6.82;2.03;;;4.90;78.50;;;;;;4974111;28;20078;-74
2024/02/13 02:27:50;;;;;;;6.22;2.47;;;4.90;78.50;;;;;;4974175;28;20027;-75
2024/02/13 02:30:17;;;;;;;6.20;2.67;;;5.00;78.70;;;;;;4972830;28;20085;-75
2024/02/13 02:32:42;;;;;;;7.25;2.17;;;5.00;78.80;;;;;;4973970;28;20026;-74
2024/02/13 02:35:08;;;;;;;5.97;2.00;;;5.00;78.70;;;;;;4956668;28;20026;-75
2024/02/13 02:37:36;;;;;;;6.25;2.10;;;5.00;78.90;;;;;;4956666;28;20487;-74
2024/02/13 02:40:02;;;;;;;3.60;1.67;;;5.00;78.90;;;;;;4972828;28;20023;-73
2024/02/13 02:42:28;;;;;;;11.05;2.72;;;5.00;78.70;;;;;;4973919;28;20384;-73
2024/02/13 02:44:53;;;;;;;6.05;2.45;;;5.00;78.90;;;;;;4973809;28;20094;-73
2024/02/13 02:47:19;;;;;;;5.57;2.45;;;5.00;79.00;;;;;;4956525;28;20030;-73
2024/02/13 02:49:45;;;;;;;7.90;2.60;;;5.00;79.10;;;;;;4973802;28;20444;-73
2024/02/13 02:52:11;;;;;;;6.72;2.30;;;5.00;79.30;;;;;;4973930;28;20097;-73
2024/02/13 02:54:39;;;;;;;6.90;2.13;;;5.00;79.50;;;;;;4956842;28;20027;-74
2024/02/13 02:57:05;;;;;;;8.25;2.40;;;5.00;79.40;;;;;;4956686;28;20074;-73
2024/02/13 02:59:31;;;;;;;3.58;1.67;;;5.00;79.40;;;;;;4956535;28;20420;-73
2024/02/13 03:01:56;;;;;;;8.13;2.03;;;5.00;79.30;;;;;;4973771;28;20054;-73
2024/02/13 03:04:22;;;;;;;5.88;2.35;;;5.10;79.40;;;;;;4973721;28;20034;-73
2024/02/13 03:06:48;;;;;;;8.32;1.88;;;5.10;79.50;;;;;;4973771;28;20023;-73
2024/02/13 03:09:14;;;;;;;6.38;1.85;;;5.10;79.50;;;;;;4959546;28;20058;-73
2024/02/13 03:11:41;;;;;;;5.95;2.15;;;5.10;79.30;;;;;;4960430;28;20027;-73
2024/02/13 03:14:09;;;;;;;11.55;2.75;;;5.10;79.40;;;;;;4960413;28;20051;-73
2024/02/13 03:16:35;;;;;;;7.95;1.75;;;5.10;79.40;;;;;;4960042;28;20456;-73
2024/02/13 03:19:07;;;;;;;4.40;1.75;;;5.00;79.40;;;;;;4960287;28;20050;-73
2024/02/13 03:21:35;;;;;;;5.20;1.67;;;5.00;79.30;;;;;;4977260;28;20104;-74
2024/02/13 03:24:00;;;;;;;6.05;2.35;;;5.10;79.70;;;;;;4959963;28;20035;-73
2024/02/13 03:26:26;;;;;;;7.78;1.98;;;5.10;79.60;;;;;;4959834;28;20514;-74
2024/02/13 03:28:52;;;;;;;4.93;2.00;;;5.10;79.50;;;;;;4959570;28;20038;-74
2024/02/13 03:31:18;;;;;;;5.75;2.00;;;5.00;79.50;;;;;;4959790;28;20034;-73
2024/02/13 03:33:44;;;;;;;8.00;1.88;;;5.00;79.60;;;;;;4960022;28;20027;-73
2024/02/13 03:36:16;;;;;;;5.30;1.65;;;5.00;79.60;;;;;;4977121;28;20106;-73
2024/02/13 03:38:43;;;;;;;5.97;1.83;;;5.00;79.60;;;;;;4959961;28;20499;-74
2024/02/13 03:41:09;;;;;;;7.43;1.80;;;5.00;79.70;;;;;;4977155;28;20037;-74
2024/02/13 03:43:36;;;;;;;5.82;2.20;;;4.90;79.80;;;;;;4976921;28;20027;-74
2024/02/13 03:46:02;;;;;;;6.93;2.10;;;4.90;80.00;;;;;;4976940;28;20023;-74
2024/02/13 03:48:28;;;;;;;10.57;2.15;;;4.90;80.10;;;;;;4976948;28;20050;-75
2024/02/13 03:50:53;;;;;;;9.27;2.05;;;4.90;79.90;;;;;;4960021;28;20043;-74
2024/02/13 03:53:19;;;;;;;5.35;1.77;;;5.00;79.70;;;;;;4959514;28;20026;-73
2024/02/13 03:55:44;;;;;;;7.93;2.10;;;4.90;79.70;;;;;;4975420;28;20062;-73
2024/02/13 03:58:10;;;;;;;4.65;1.55;;;5.00;79.70;;;;;;4976800;28;20073;-73
2024/02/13 04:00:37;;;;;;;5.68;1.98;;;4.90;79.60;;;;;;4976753;28;20121;-73
2024/02/13 04:03:03;;;;;;;6.40;1.83;;;4.90;79.80;;;;;;4959191;28;20035;-73
2024/02/13 04:05:29;;;;;;;10.10;2.03;;;4.90;79.80;;;;;;4959505;28;20479;-73
2024/02/13 04:07:55;;;;;;;4.90;2.05;;;4.90;80.20;;;;;;4959364;28;20038;-73
2024/02/13 04:10:21;;;;;;;4.43;1.95;;;4.80;80.50;;;;;;4976529;28;20031;-74
2024/02/13 04:12:47;;;;;;;5.50;2.00;;;4.70;80.70;;;;;;4959515;28;20498;-73
2024/02/13 04:15:13;;;;;;;10.85;2.47;;;4.70;80.70;;;;;;4976377;28;20042;-74
2024/02/13 04:17:38;;;;;;;7.00;1.77;;;4.70;80.70;;;;;;4959111;28;20030;-73
2024/02/13 04:20:05;;;;;;;7.75;2.00;;;4.70;80.70;;;;;;4958752;28;20023;-74
2024/02/13 04:22:31;;;;;;;10.55;1.73;;;4.70;80.70;;;;;;4976269;28;20479;-74
2024/02/13 04:24:57;;;;;;;7.25;1.65;;;4.70;80.40;;;;;;4959127;28;20057;-73
2024/02/13 04:27:23;;;;;;;5.82;1.63;;;4.60;80.40;;;;;;4959066;28;20038;-73
2024/02/13 04:29:48;;;;;;;5.55;1.85;;;4.60;80.40;;;;;;4975110;28;20081;-73
2024/02/13 04:32:14;;;;;;;6.93;1.80;;;4.60;80.60;;;;;;4975813;28;20035;-73
2024/02/13 04:34:41;;;;;;;9.45;2.03;;;4.60;80.50;;;;;;4974779;28;20027;-73
2024/02/13 04:37:08;;;;;;;6.03;2.05;;;4.50;80.40;;;;;;4975979;28;20019;-74
2024/02/13 04:39:33;;;;;;;8.77;2.15;;;4.50;80.50;;;;;;4974669;28;20447;-74
2024/02/13 04:41:59;;;;;;;6.50;1.38;;;4.40;80.40;;;;;;4974633;28;20023;-73
2024/02/13 04:44:25;;;;;;;6.47;1.48;;;4.40;80.30;;;;;;4974471;28;20019;-73
2024/02/13 04:46:51;;;;;;;7.55;2.00;;;4.30;80.40;;;;;;4958564;28;20030;-73
2024/02/13 04:49:16;;;;;;;5.30;1.52;;;4.20;80.60;;;;;;4958583;28;20130;-73
2024/02/13 04:51:42;;;;;;;5.97;1.80;;;4.20;81.00;;;;;;4958453;28;20031;-73
2024/02/13 04:54:08;;;;;;;5.38;1.73;;;4.20;81.10;;;;;;4975610;28;20029;-73
2024/02/13 04:56:35;;;;;;;8.05;2.47;;;4.10;81.20;;;;;;4975507;28;20022;-74
2024/02/13 04:59:02;;;;;;;10.98;2.30;;;4.10;81.20;;;;;;4975552;28;20113;-73
2024/02/13 05:01:28;;;;;;;9.40;2.20;;;4.10;81.20;;;;;;4958145;28;20050;-73
2024/02/13 05:09:04;;;;;;;7.22;2.65;;;4.10;81.30;;;;;;4975542;28;20038;-73
2024/02/13 05:11:30;;;;;;;8.02;2.53;;;4.00;81.10;;;;;;4974111;28;20393;-74
2024/02/13 05:13:59;;;;;;;8.45;3.08;;;4.00;81.00;;;;;;4957563;28;20082;-72
2024/02/13 05:16:26;;;;;;;7.65;2.22;;;4.00;81.00;;;;;;4957880;28;20050;-73
2024/02/13 05:18:52;;;;;;;8.20;2.50;;;4.00;81.00;;;;;;4975173;28;20101;-73
2024/02/13 05:21:21;;;;;;;7.72;2.20;;;4.00;80.80;;;;;;4973983;28;20023;-73
2024/02/13 05:23:49;;;;;;;6.03;2.17;;;4.00;80.80;;;;;;4957777;28;20073;-73
2024/02/13 05:26:15;;;;;;;7.15;1.95;;;3.90;80.70;;;;;;4958014;28;20384;-73
2024/02/13 05:28:42;;;;;;;8.00;1.90;;;3.90;80.60;;;;;;4975128;28;20022;-73
2024/02/13 05:31:07;;;;;;;7.78;2.22;;;3.90;80.70;;;;;;4974223;28;20499;-73
2024/02/13 05:33:34;;;;;;;5.07;1.40;;;3.80;80.40;;;;;;4974940;28;20098;-73
2024/02/13 05:36:01;;;;;;;6.20;1.88;;;3.80;80.50;;;;;;4957811;28;20086;-73
2024/02/13 05:38:27;;;;;;;8.60;2.00;;;3.70;80.60;;;;;;4957726;28;20093;-74
2024/02/13 05:40:53;;;;;;;7.05;1.30;;;3.70;80.70;;;;;;4957434;28;20096;-74
2024/02/13 05:43:20;;;;;;;6.32;1.38;;;3.70;80.60;;;;;;4974708;28;20027;-73
2024/02/13 05:45:49;;;;;;;8.73;1.88;;;3.70;80.50;;;;;;4974919;28;20508;-75
2024/02/13 05:48:15;;;;;;;7.93;1.88;;;3.60;80.40;;;;;;4957205;28;20019;-74
2024/02/13 05:50:40;;;;;;;11.00;2.65;;;3.60;80.40;;;;;;4956392;28;20039;-73
2024/02/13 05:53:06;;;;;;;11.93;2.83;;;3.60;80.20;;;;;;4957300;28;20022;-74
2024/02/13 05:55:32;;;;;;;9.65;2.50;;;3.60;80.20;;;;;;4974486;28;20018;-74
2024/02/13 05:57:58;;;;;;;12.18;3.22;;;3.60;80.30;;;;;;4957191;28;20113;-74
2024/02/13 06:00:24;;;;;;;11.73;2.92;;;3.50;80.40;;;;;;4973123;28;20038;-74
2024/02/13 06:02:54;;;;;;;8.82;2.40;;;3.50;80.40;;;;;;4974470;28;20358;-73
2024/02/13 06:05:21;;;;;;;7.22;2.10;;;3.50;80.30;;;;;;4956783;28;20118;-73
2024/02/13 06:07:46;;;;;;;7.15;2.55;;;3.40;80.50;;;;;;4956797;28;20085;-73
2024/02/13 06:10:12;;;;;;;11.32;2.53;;;3.40;80.80;;;;;;4956855;28;20479;-74
2024/02/13 06:12:38;;;;;;;5.88;2.00;;;3.30;81.00;;;;;;4957174;28;20019;-74
2024/02/13 06:15:05;;;;;;;6.82;1.88;;;3.30;81.00;;;;;;4974262;28;20055;-74
2024/02/13 06:17:31;;;;;;;12.00;2.25;;;3.30;80.90;;;;;;4974227;28;20520;-75
2024/02/13 06:20:02;;;;;;;10.13;2.33;;;3.30;80.50;;;;;;4956732;28;20062;-74
2024/02/13 06:22:27;;;;;;;9.43;2.20;;;3.30;80.80;;;;;;4957124;28;20026;-74
2024/02/13 06:24:53;;;;;;;8.57;2.40;;;3.30;80.80;;;;;;4974017;28;20037;-74
2024/02/13 06:27:18;;;;;;;6.03;1.88;;;3.20;80.80;;;;;;4957010;28;20026;-74
2024/02/13 06:29:44;;;;;;;9.95;2.05;;;3.20;81.10;;;;;;4956937;28;20081;-74
2024/02/13 06:32:10;;;;;;;5.07;2.00;;;3.20;81.00;;;;;;4974117;28;20019;-73
2024/02/13 06:34:36;;;;;;;8.30;2.00;;;3.30;81.10;;;;;;4956893;28;20412;-74
2024/02/13 06:37:02;;;;;;;6.82;2.33;;;3.20;80.90;;;;;;4973882;28;20033;-73
2024/02/13 06:39:27;;;;;;;5.38;1.60;;;3.20;81.00;;;;;;4974043;28;20023;-74
2024/02/13 06:41:53;;;;;;;6.93;1.63;;;3.20;80.90;;;;;;4974979;28;20038;-73
2024/02/13 06:44:22;;;;;;;11.35;1.73;;;3.20;80.70;;;;;;4992336;28;20035;-73
2024/02/13 06:46:47;;;;;;;6.03;2.03;;;3.20;80.50;;;;;;4997602;28;20030;-74
2024/02/13 06:49:13;;;;;;;9.60;2.65;;;3.20;80.60;;;;;;4979711;28;20376;-75
2024/02/13 06:51:38;;;;;;;11.18;2.83;;;3.20;80.70;;;;;;4979696;28;20030;-73
2024/02/13 06:54:04;;;;;;;11.77;2.45;;;3.00;81.50;;;;;;4979749;28;20025;-73
2024/02/13 06:56:30;;;;;;;9.35;2.95;;;3.00;81.20;;;;;;4997064;28;20494;-73
2024/02/13 06:58:56;;;;;;;9.73;2.58;;;2.90;81.50;;;;;;4979478;28;20113;-73
2024/02/13 07:01:23;;;;;;;6.68;2.97;;;3.00;81.50;;;;;;4996795;28;20110;-73
2024/02/13 07:03:49;;;;;;;6.25;2.80;;;2.90;81.70;;;;;;4979776;28;20027;-73
2024/02/13 07:06:18;;;;;;;10.40;2.55;;;3.00;81.40;;;;;;4979838;28;20424;-73
2024/02/13 07:08:44;;;;;;;11.70;2.67;;;3.00;81.40;;;;;;4979907;28;20026;-74
2024/02/13 07:11:10;;;;;;;7.60;3.03;;;3.00;81.50;;;;;;4979669;28;20103;-73
2024/02/13 07:13:36;;;;;;;8.18;2.78;;;3.00;81.50;;;;;;4996932;28;20050;-73
2024/02/13 07:16:06;;;;;;;7.90;3.30;;;3.10;81.50;;;;;;4979209;28;20053;-73
2024/02/13 07:18:36;;;;;;;9.65;2.42;;;3.10;81.40;;;;;;4979221;28;20484;-73
2024/02/13 07:21:01;;;;;;;8.52;2.85;;;3.10;81.20;;;;;;4996600;28;20494;-73
2024/02/13 07:23:27;;;;;;;12.05;2.25;;;3.00;81.20;;;;;;4996764;28;20030;-73
2024/02/13 07:25:53;;;;;;;7.53;2.30;;;3.10;81.30;;;;;;4996568;28;20380;-74
2024/02/13 07:28:19;;;;;;;8.82;3.22;;;3.20;81.30;;;;;;4996680;28;20057;-73
2024/02/13 07:30:45;;;;;;;8.82;2.90;;;3.20;80.80;;;;;;4996218;28;20034;-73
2024/02/13 07:33:10;;;;;;;7.85;2.88;;;3.30;80.80;;;;;;4996488;28;20065;-73
2024/02/13 07:35:36;;;;;;;11.10;3.70;;;3.30;80.20;;;;;;4996507;28;20411;-73
2024/02/13 07:38:04;;;;;;;10.70;3.95;;;3.40;80.30;;;;;;4996440;28;20027;-74
2024/02/13 07:40:30;;;;;;;10.98;3.70;;;3.40;79.90;;;;;;4979040;28;20158;-72
2024/02/13 07:42:55;;;;;;;10.07;3.63;;;3.40;79.80;;;;;;4979154;28;20121;-73
2024/02/13 07:45:21;;;;;;;8.77;3.70;;;3.40;80.80;;;;;;4996320;28;20069;-73
2024/02/13 07:47:46;;;;;;;18.10;4.10;;;3.40;80.00;;;;;;4979118;28;20418;-73
2024/02/13 07:50:14;;;;;;;8.60;2.85;;;3.40;79.90;;;;;;4979032;28;20121;-73
2024/02/13 07:52:40;;;;;;;9.68;2.92;;;3.60;80.00;;;;;;4979108;28;20076;-73
2024/02/13 07:55:06;;;;;;;7.22;3.45;;;3.60;79.80;;;;;;4978350;28;20124;-73
2024/02/13 07:57:34;;;;;;;12.73;2.70;;;3.70;79.80;;;;;;4979117;28;20428;-74
2024/02/13 07:59:59;;;;;;;9.65;2.53;;;3.70;79.50;;;;;;4978974;28;20109;-73
2024/02/13 08:02:25;;;;;;;9.95;2.65;;;3.90;79.20;;;;;;4979016;28;20097;-73
2024/02/13 08:04:51;;;;;;;9.23;2.67;;;4.00;78.90;;;;;;4995909;28;20025;-72
2024/02/13 08:07:17;;;;;;;8.35;3.03;;;4.10;78.50;;;;;;4995924;28;20113;-72
2024/02/13 08:09:42;;;;;;;10.07;2.80;;;4.30;78.20;;;;;;4978608;28;20129;-73
2024/02/13 08:12:09;;;;;;;8.45;2.83;;;4.50;78.20;;;;;;4995924;28;20030;-72
2024/02/13 08:14:36;;;;;;;9.27;3.42;;;4.80;80.20;;;;;;4995909;28;20035;-71
2024/02/13 08:17:06;;;;;;;10.05;3.25;;;5.20;83.30;;;;;;4996168;28;20069;-73
2024/02/13 08:19:33;;;;;;;9.65;3.20;;;5.80;83.70;;;;;;4979423;28;20504;-75
2024/02/13 08:22:00;;;;;;;7.15;2.95;;;6.10;77.80;;;;;;4995497;28;20046;-73
2024/02/13 08:24:26;;;;;;;10.80;3.20;;;6.50;73.90;;;;;;4995424;28;20077;-73
2024/02/13 08:26:52;;;;;;;10.90;3.28;;;7.00;72.10;;;;;;4995527;28;20022;-75
2024/02/13 08:29:19;;;;;;;9.48;3.85;;;7.30;69.90;;;;;;4978432;28;20061;-72
2024/02/13 08:31:45;;;;;;;9.63;3.25;;;7.70;69.10;;;;;;4995467;28;20022;-74
2024/02/13 08:34:10;;;;;;;6.65;3.08;;;7.90;66.90;;;;;;4995841;28;20476;-74
2024/02/13 08:36:38;;;;;;;8.30;4.03;;;8.20;65.60;;;;;;4987555;28;20019;-74
2024/02/13 08:39:04;;;;;;;6.45;3.17;;;8.50;64.00;;;;;;4956924;28;20031;-74
2024/02/13 08:41:31;;;;;;;8.15;3.10;;;8.60;62.70;;;;;;4957776;29;20350;-73
2024/02/13 08:44:00;;;;;;;9.65;3.97;;;8.80;62.50;;;;;;4956169;29;20015;-72
2024/02/13 08:46:25;;;;;;;7.93;4.20;;;9.10;61.10;;;;;;4956635;29;20511;-72
2024/02/13 08:48:51;;;;;;;9.68;4.05;;;9.20;61.10;;;;;;4956619;29;20031;-73
2024/02/13 08:51:18;;;;;;;6.22;3.63;;;9.20;60.10;;;;;;4957024;29;20043;-75
2024/02/13 08:53:46;;;;;;;6.65;3.20;;;9.20;60.00;;;;;;4956508;29;20097;-73
2024/02/13 08:56:13;;;;;;;9.35;3.03;;;9.10;59.80;;;;;;4956166;29;20480;-76
2024/02/13 08:58:39;;;;;;;8.52;3.03;;;9.00;59.90;;;;;;4956171;29;20031;-74
2024/02/13 09:01:05;;;;;;;6.57;2.85;;;9.00;60.10;;;;;;4956075;29;20082;-74
2024/02/13 09:03:30;;;;;;;5.32;2.55;;;9.00;60.30;;;;;;4956278;29;20058;-74
2024/02/13 09:05:57;;;;;;;7.65;2.78;;;9.00;60.40;;;;;;4937775;29;20031;-74
2024/02/13 09:08:23;;;;;;;6.97;2.80;;;9.10;60.20;;;;;;4939039;29;20062;-73
2024/02/13 09:10:50;;;;;;;4.97;2.33;;;9.20;59.70;;;;;;4938558;29;20035;-74
2024/02/13 09:13:16;;;;;;;7.70;1.75;;;9.30;59.10;;;;;;4938839;29;20105;-74
2024/02/13 09:15:42;;;;;;;5.35;2.22;;;9.50;57.90;;;;;;4955620;29;20127;-74
2024/02/13 09:18:07;;;;;;;7.72;1.95;;;9.60;57.50;;;;;;4954535;29;20573;-74
2024/02/13 09:20:34;;;;;;;7.72;1.75;;;9.70;56.90;;;;;;4938800;29;20038;-74
2024/02/13 09:23:00;;;;;;;3.45;1.85;;;9.80;56.40;;;;;;4955641;29;20054;-73
2024/02/13 09:25:26;;;;;;;6.38;1.50;;;9.90;54.80;;;;;;4938560;29;20083;-73
2024/02/13 09:27:54;;;;;;;6.13;1.30;;;9.80;51.30;;;;;;4955568;29;20110;-73
2024/02/13 09:30:19;;;;;;;5.85;0.90;;;9.50;51.10;;;;;;4938530;29;20050;-74
2024/02/13 09:32:48;;;;;;;8.25;1.38;;;9.00;53.30;;;;;;4955389;29;20016;-73
2024/02/13 09:35:14;;;;;;;3.97;0.98;;;8.90;54.10;;;;;;4955288;29;20039;-73
2024/02/13 09:37:40;;;;;;;4.70;0.95;;;8.90;52.70;;;;;;4955006;29;20046;-73
2024/02/13 09:40:13;;;;;;;6.65;1.65;;;9.00;52.50;;;;;;4938202;29;20110;-73
2024/02/13 09:42:42;;;;;;;5.13;1.33;;;8.90;53.70;;;;;;4954776;29;20119;-74
2024/02/13 09:45:13;;;;;;;3.63;1.25;;;8.90;53.30;;;;;;4954939;29;20131;-74
2024/02/13 09:47:39;;;;;;;4.28;0.90;;;9.10;52.20;;;;;;4955260;29;20361;-73
2024/02/13 09:50:09;;;;;;;5.80;1.23;;;9.00;52.40;;;;;;4954755;29;20046;-74
2024/02/13 09:52:36;;;;;;;3.78;1.10;;;9.10;51.40;;;;;;4937653;29;20019;-73
2024/02/13 09:55:03;;;;;;;3.75;1.27;;;9.30;51.60;;;;;;4954991;29;20035;-73
2024/02/13 09:57:29;;;;;;;4.47;1.30;;;9.40;48.40;;;;;;4955178;29;20480;-74
2024/02/13 09:59:56;;;;;;;5.03;1.25;;;9.50;48.20;;;;;;4938097;29;20131;-74
2024/02/13 10:02:27;;;;;;;3.28;1.05;;;9.60;48.30;;;;;;4955102;29;20054;-74
2024/02/13 10:04:53;;;;;;;2.15;0.90;;;9.80;48.70;;;;;;4954858;29;20020;-74
2024/02/13 10:07:19;;;;;;;7.03;1.35;;;9.90;47.80;;;;;;4938151;29;20046;-73
2024/02/13 10:09:45;;;;;;;6.28;1.58;;;9.90;48.30;;;;;;4937711;29;20082;-74
2024/02/13 10:12:14;;;;;;;2.95;1.20;;;10.10;45.80;;;;;;4937926;29;20035;-74
2024/02/13 10:14:39;;;;;;;6.05;1.27;;;10.00;47.70;;;;;;4937595;29;20027;-75
2024/02/13 10:17:12;;;;;;;3.67;1.42;;;10.10;47.50;;;;;;4937184;29;20051;-74
2024/02/13 10:19:38;;;;;;;4.03;1.20;;;10.30;47.00;;;;;;4954822;29;20023;-76
2024/02/13 10:22:09;;;;;;;6.75;1.40;;;10.50;45.50;;;;;;4954700;29;20104;-74
2024/02/13 10:24:35;;;;;;;5.65;1.08;;;10.30;46.20;;;;;;4954854;29;20143;-74
2024/02/13 10:27:03;;;;;;;5.93;1.02;;;10.50;46.00;;;;;;4937772;29;20027;-75
2024/02/13 10:29:40;;;;;;;2.17;0.80;;;10.90;44.10;;;;;;4954381;29;20027;-74
2024/02/13 10:32:07;;;;;;;3.33;0.80;;;10.70;42.00;;;;;;4954394;29;20031;-75
2024/02/13 10:34:37;;;;;;;2.95;1.00;;;10.40;43.50;;;;;;4954506;29;20086;-75
2024/02/13 10:37:08;;;;;;;2.83;0.80;;;10.50;43.60;;;;;;4937903;29;20034;-75
2024/02/13 10:39:34;;;;;;;2.78;1.20;;;10.80;42.90;;;;;;4937183;29;20118;-75
2024/02/13 10:42:02;;;;;;;5.03;1.42;;;11.00;43.70;;;;;;4954675;29;20023;-74
2024/02/13 10:44:31;;;;;;;4.38;1.60;;;11.30;43.70;;;;;;4921922;29;20067;-74
2024/02/13 10:46:57;;;;;;;4.05;1.52;;;11.50;43.80;;;;;;4937305;29;20114;-75
2024/02/13 10:49:42;;;;;;;4.43;1.25;;;11.80;43.40;;;;;;4936750;29;20034;-74
2024/02/13 10:52:08;;;;;;;5.32;1.45;;;12.30;42.20;;;;;;4936944;29;20023;-73
2024/02/13 10:54:37;;;;;;;3.35;1.20;;;12.50;40.70;;;;;;4937071;29;20457;-74
2024/02/13 10:57:06;;;;;;;3.78;1.20;;;12.70;40.50;;;;;;4954094;29;20034;-75
2024/02/13 10:59:35;;;;;;;4.22;1.25;;;12.80;38.40;;;;;;4937232;29;20019;-75
2024/02/13 11:02:01;;;;;;;4.35;1.40;;;13.00;38.30;;;;;;4937059;29;20033;-71
2024/02/13 11:04:27;;;;;;;2.35;1.02;;;12.30;38.50;;;;;;4953930;29;20062;-74
2024/02/13 11:06:54;;;;;;;3.65;1.35;;;11.80;39.50;;;;;;4954244;29;20055;-72
2024/02/13 11:09:19;;;;;;;4.78;1.50;;;11.50;40.30;;;;;;4954095;29;20102;-73
2024/02/13 11:11:46;;;;;;;4.00;2.00;;;11.00;42.80;;;;;;4954105;29;20102;-73
2024/02/13 11:14:16;;;;;;;4.43;1.67;;;10.90;42.20;;;;;;4954314;29;20023;-73
2024/02/13 11:17:00;;;;;;;5.10;1.52;;;10.80;42.80;;;;;;4954000;29;20055;-73
2024/02/13 11:19:37;;;;;;;3.70;1.40;;;10.90;42.60;;;;;;4936863;29;20075;-73
2024/02/13 11:22:04;;;;;;;4.57;1.80;;;10.90;42.20;;;;;;4954232;29;20032;-73
2024/02/13 11:24:48;;;;;;;4.68;1.85;;;11.00;42.60;;;;;;4937211;29;20045;-72
2024/02/13 11:27:17;;;;;;;4.65;1.73;;;11.00;42.70;;;;;;4937072;29;20031;-72
2024/02/13 11:29:53;;;;;;;5.50;1.70;;;10.90;43.10;;;;;;4938778;29;20058;-74
2024/02/13 11:32:29;;;;;;;3.22;1.67;;;11.00;43.60;;;;;;4940329;29;20031;-73
2024/02/13 11:34:58;;;;;;;5.30;2.10;;;11.20;43.90;;;;;;4940383;29;20428;-73
2024/02/13 11:37:28;;;;;;;5.60;1.90;;;11.50;44.30;;;;;;4940423;29;20037;-73
2024/02/13 11:39:56;;;;;;;4.28;1.67;;;11.40;44.30;;;;;;4940459;29;20039;-72
2024/02/13 11:42:22;;;;;;;3.47;1.90;;;11.40;44.70;;;;;;4940337;29;20019;-72
2024/02/13 11:44:48;;;;;;;6.00;1.80;;;10.90;45.90;;;;;;4940297;29;20491;-72
2024/02/13 11:47:22;;;;;;;3.55;1.98;;;10.80;47.60;;;;;;4957680;29;20031;-73
2024/02/13 11:49:49;;;;;;;5.85;2.05;;;10.90;46.50;;;;;;4940055;29;20476;-73
2024/02/13 11:52:16;;;;;;;4.68;1.90;;;10.70;47.50;;;;;;4956830;29;20078;-73
2024/02/13 11:54:43;;;;;;;4.07;1.95;;;10.70;47.70;;;;;;4956836;29;20031;-73
2024/02/13 11:57:13;;;;;;;5.43;2.10;;;11.20;47.20;;;;;;4956931;29;20055;-73
2024/02/13 11:59:39;;;;;;;3.92;1.90;;;11.80;45.50;;;;;;4938973;29;20039;-72
2024/02/13 12:02:13;;;;;;;4.60;1.60;;;12.10;44.40;;;;;;4956744;29;20089;-73
2024/02/13 12:04:42;;;;;;;5.90;1.90;;;12.30;43.60;;;;;;4956480;29;20432;-72
2024/02/13 12:07:09;;;;;;;4.30;1.65;;;12.50;42.30;;;;;;4957131;29;20023;-72
2024/02/13 12:09:38;;;;;;;2.78;1.35;;;12.60;42.10;;;;;;4956879;29;20032;-72
2024/02/13 12:12:06;;;;;;;3.75;1.30;;;12.60;41.60;;;;;;4939917;29;20042;-73
2024/02/13 12:14:32;;;;;;;3.78;1.38;;;12.60;41.00;;;;;;4956890;29;20027;-73
2024/02/13 12:17:06;;;;;;;4.00;1.40;;;12.50;40.60;;;;;;4956697;29;20050;-73
2024/02/13 12:19:46;;;;;;;2.95;0.90;;;12.10;41.90;;;;;;4956923;29;20031;-73
2024/02/13 12:22:16;;;;;;;3.38;1.40;;;11.80;41.70;;;;;;4957053;29;20027;-73
2024/02/13 12:24:46;;;;;;;2.70;1.30;;;11.70;42.00;;;;;;4957534;29;20102;-74
2024/02/13 12:27:12;;;;;;;2.78;1.45;;;11.50;42.40;;;;;;4956968;29;20121;-73
2024/02/13 12:29:39;;;;;;;4.63;1.30;;;11.50;42.70;;;;;;4956740;29;20045;-73
2024/02/13 12:32:15;;;;;;;4.43;1.45;;;11.50;43.00;;;;;;4956912;29;20030;-72
2024/02/13 12:34:42;;;;;;;3.55;1.30;;;11.50;42.60;;;;;;4956827;29;20082;-72
2024/02/13 12:37:08;;;;;;;4.53;1.77;;;11.30;43.10;;;;;;4956778;29;20031;-72
2024/02/13 12:39:36;;;;;;;4.32;1.42;;;11.30;43.80;;;;;;4956524;28;20023;-73
2024/02/13 12:42:05;;;;;;;2.50;1.00;;;11.60;43.00;;;;;;4956700;29;20023;-72
2024/02/13 12:44:33;;;;;;;3.70;1.20;;;11.80;42.20;;;;;;4956279;29;20472;-73
2024/02/13 12:46:58;;;;;;;3.65;1.15;;;12.40;40.40;;;;;;4955945;29;20051;-73
2024/02/13 12:49:26;;;;;;;7.30;1.70;;;12.60;39.20;;;;;;4938929;29;20035;-73
2024/02/13 12:51:52;;;;;;;5.72;1.40;;;12.40;40.70;;;;;;4956203;29;20110;-73
2024/02/13 12:54:19;;;;;;;3.63;1.88;;;12.00;40.80;;;;;;4956211;29;20047;-73
2024/02/13 12:56:46;;;;;;;4.45;1.42;;;11.90;41.60;;;;;;4956368;29;20099;-73